• Join FlightAware (Why Join?)
  • Login
  • US Flag 
08:02PM EDT


 

Airport Tracker/Info


-or-


 

Live Flight TrackerFlight Track Log ✈ EGF9800 ✈ 23-Oct-2013 ✈ KSGF - KDFW

Flight Track Log - Related Links

Times and Time Zones

All times are in EDT time to prevent confusion due to time zone crossing. See the EGF9800 flight status page for this flight to view local times or setup timezone preferences in your user account.

Time Position Orientation Groundspeed Altitude Reporting Facility
EDT Latitude Longitude Course Direction KTS MPH feet Rate Location/Type
08:49AM 37.1406 -93.4331 208° Southwest 269 310 6,000  Level Memphis Center
08:50AM 37.0656 -93.4658 199° South 279 321 9,400 2,460 Climbing Memphis Center
08:51AM 36.9658 -93.5192 203° Southwest 316 364 11,300 1,500 Climbing Kansas City Center
08:52AM 36.8661 -93.5675 201° Southwest 382 440 12,700 1,740 Climbing Kansas City Center
08:53AM 36.7619 -93.6153 200° South 400 460 14,900 1,560 Climbing Kansas City Center
08:54AM 36.6554 -93.9133 208° Southwest  Level Estimated
08:54AM 36.6589 -93.6678 202° Southwest 399 459 16,000  Level Kansas City Center
08:55AM 36.5519 -93.7183 201° Southwest 407 468 17,400 1,560 Climbing Kansas City Center
08:56AM 36.4217 -93.7808 201° Southwest 413 475 19,200 1,620 Climbing Kansas City Center
08:57AM 36.3144 -93.8339 202° Southwest 416 479 20,800 1,560 Climbing Kansas City Center
08:58AM 36.2044 -93.8844 200° South 419 482 22,500 1,320 Climbing Kansas City Center
08:59AM 36.0944 -93.9386 202° Southwest 420 483 23,500 900 Climbing Memphis Center
09:00AM 35.9836 -93.9917 201° Southwest 424 488 24,400 780 Climbing Memphis Center
09:01AM 35.8650 -94.0472 201° Southwest 433 498 25,200 900 Climbing Memphis Center
09:02AM 35.7497 -94.1025 201° Southwest 438 504 26,300 1,020 Climbing Memphis Center
09:03AM 35.6203 -94.1625 201° Southwest 437 503 27,400 960 Climbing Memphis Center
09:05AM 35.5083 -94.2161 201° Southwest 435 501 28,400 900 Climbing Memphis Center
09:06AM 35.3969 -94.2689 201° Southwest 433 498 29,300 720 Climbing Memphis Center
09:07AM 35.3056 -94.3606 219° Southwest 430 495 30,000 300 Climbing Memphis Center
09:08AM 35.2186 -94.4572 222° Southwest 424 488 30,000  Level Memphis Center
09:09AM 35.1125 -94.5725 222° Southwest 427 491 30,000  Level Memphis Center
09:09AM 35.0606 -94.6336 224° Southwest 436 502 30,000  Level Fort Worth Center
09:10AM 34.9728 -94.7253 221° Southwest 436 502 30,000  Level Fort Worth Center
09:11AM 34.8850 -94.8192 221° Southwest 431 496 30,000  Level Fort Worth Center
09:12AM 34.7975 -94.9178 223° Southwest 431 496 30,000  Level Fort Worth Center
09:13AM 34.7094 -95.0089 220° Southwest 426 490 30,000  Level Fort Worth Center
09:14AM 34.6236 -95.0994 221° Southwest 426 490 30,000  Level Fort Worth Center
09:15AM 34.5206 -95.1703 210° Southwest 426 490 30,000 -60 Level Fort Worth Center
09:16AM 34.3975 -95.1761 182° South 412 474 29,900 -780 Descending Fort Worth Center
09:17AM 34.2764 -95.1717 178° South 425 489 28,500 -1,500 Descending Fort Worth Center
09:18AM 34.1533 -95.1697 179° South 437 503 27,000 -1,500 Descending Fort Worth Center
09:19AM 34.0386 -95.1803 184° South 437 503 25,500 -1,500 Descending Fort Worth Center
09:20AM 33.9589 -95.2725 224° Southwest 384 442 24,100 -780 Descending Fort Worth Center
09:21AM 33.9108 -95.3814 242° Southwest 366 421 24,000 -600 Descending Fort Worth Center
09:22AM 33.8561 -95.4975 240° Southwest 382 440 23,000 -1,440 Descending Fort Worth Center
09:23AM 33.8017 -95.6236 243° Southwest 393 452 21,200 -1,680 Descending Fort Worth Center
09:24AM 33.7553 -95.7397 244° Southwest 393 452 19,700 -1,560 Descending Fort Worth Center
09:25AM 33.7044 -95.8506 241° Southwest 387 445 18,100 -1,380 Descending Fort Worth Center
09:26AM 33.6639 -95.9486 244° Southwest 382 440 17,000 -1,440 Descending Fort Worth Center
09:27AM 33.6131 -96.0667 243° Southwest 370 426 15,300 -1,740 Descending Fort Worth Center
09:28AM 33.5722 -96.1544 241° Southwest 349 402 13,600 -1,920 Descending Fort Worth Center
09:29AM 33.5044 -96.2550 231° Southwest 349 402 11,500 -1,320 Descending Fort Worth Center
09:30AM 33.4486 -96.3331 229° Southwest 354 407 11,000 -420 Descending Fort Worth Center
09:31AM 33.3847 -96.4183 228° Southwest 331 381 10,700 -780 Descending Fort Worth Center
09:32AM 33.3333 -96.4667 218° Southwest 315 362 9,700 -1,860 Descending Dallas / Fort Worth TRACON
09:33AM 33.2833 -96.5333 228° Southwest 287 330 7,600 -2,220 Descending Dallas / Fort Worth TRACON
09:34AM 33.2500 -96.6167 244° Southwest 268 308 5,300 -1,320 Descending Dallas / Fort Worth TRACON
09:35AM 33.2167 -96.7000 244° Southwest 266 306 5,000 -180 Descending Dallas / Fort Worth TRACON
09:36AM 33.1833 -96.7667 239° Southwest 268 308 5,000  Level Dallas / Fort Worth TRACON
09:37AM 33.1333 -96.8333 228° Southwest 265 305 5,000 -480 Level Dallas / Fort Worth TRACON
09:38AM 33.1000 -96.9000 239° Southwest 256 295 4,100 -1,020 Descending Dallas / Fort Worth TRACON
09:39AM 33.0667 -96.9667 239° Southwest 201 231 3,100 -840 Descending Dallas / Fort Worth TRACON
09:40AM 33.0333 -97.0000 220° Southwest 197 227 2,600 -540 Descending Dallas / Fort Worth TRACON
09:41AM 32.9667 -97.0000 180° South 160 184 2,000 -720 Descending Dallas / Fort Worth TRACON
09:42AM 32.9333 -97.0000 180° South 142 163 1,200 4,680 Descending Dallas / Fort Worth TRACON
09:44AM 32.8347 -97.0153 187° South 148 170 18,000 7,020 Climbing Fort Worth Center
09:46AM 32.8833 -97.0333 232° Southwest  Level FlightAware Approximate